Time;durP1;ratioP1;P1;durP2;ratioP2;P2;SDS_P1;SDS_P2;PMS_P1;PMS_P2;Temp;Humidity;BMP_temperature;BMP_pressure;BME280_temperature;BME280_humidity;BME280_pressure;Samples;Min_cycle;Max_cycle;Signal;HPM_P1;HPM_P2
2023/08/04 00:00:49;;;;;;;4.50;1.65;;;21.60;74.60;;;;;;5072390;28;20450;-62
2023/08/04 00:03:15;;;;;;;4.28;1.40;;;21.60;74.60;;;;;;5071920;28;20082;-63
2023/08/04 00:05:40;;;;;;;5.72;1.92;;;21.60;74.60;;;;;;5072300;28;20040;-63
2023/08/04 00:08:06;;;;;;;2.65;1.60;;;21.60;74.60;;;;;;5072804;28;20094;-63
2023/08/04 00:10:32;;;;;;;2.70;1.45;;;21.60;74.60;;;;;;5072192;28;20080;-63
2023/08/04 00:12:57;;;;;;;4.10;1.60;;;21.60;75.20;;;;;;5072269;28;20086;-62
2023/08/04 00:15:23;;;;;;;2.83;1.42;;;21.60;74.60;;;;;;5052584;28;20084;-63
2023/08/04 00:17:48;;;;;;;3.60;1.50;;;21.60;74.50;;;;;;5051573;28;20098;-63
2023/08/04 00:20:14;;;;;;;4.93;1.85;;;21.60;74.50;;;;;;5071298;28;20044;-63
2023/08/04 00:22:40;;;;;;;3.78;1.58;;;21.60;74.50;;;;;;5072298;28;20041;-63
2023/08/04 00:25:06;;;;;;;3.90;1.80;;;21.60;74.50;;;;;;5072400;28;20037;-64
2023/08/04 00:27:31;;;;;;;4.70;1.50;;;21.60;74.50;;;;;;5071288;28;20048;-62
2023/08/04 00:29:57;;;;;;;3.10;1.83;;;21.60;74.50;;;;;;5071861;28;20044;-62
2023/08/04 00:32:22;;;;;;;4.45;1.50;;;21.60;74.50;;;;;;5071402;28;20524;-62
2023/08/04 00:34:48;;;;;;;3.00;1.63;;;21.60;74.50;;;;;;5072246;28;20539;-62
2023/08/04 00:37:14;;;;;;;5.78;1.60;;;21.60;74.50;;;;;;5072280;28;20037;-62
2023/08/04 00:39:39;;;;;;;3.60;1.42;;;21.60;74.40;;;;;;5071159;28;20159;-62
2023/08/04 00:42:05;;;;;;;2.92;1.17;;;21.60;74.80;;;;;;5071012;28;20045;-62
2023/08/04 00:44:30;;;;;;;3.63;1.45;;;21.60;74.50;;;;;;5072048;28;20033;-62
2023/08/04 00:46:57;;;;;;;3.28;1.40;;;21.60;74.50;;;;;;5071121;28;20049;-63
2023/08/04 00:49:22;;;;;;;3.45;1.58;;;21.60;74.40;;;;;;5070965;28;20079;-62
2023/08/04 00:51:48;;;;;;;2.65;1.27;;;21.60;74.40;;;;;;5070082;28;20076;-63
2023/08/04 00:54:16;;;;;;;4.43;1.25;;;21.60;74.40;;;;;;5072313;28;20048;-62
2023/08/04 00:56:42;;;;;;;1.98;1.13;;;21.50;74.40;;;;;;5071916;28;20044;-63
2023/08/04 00:59:07;;;;;;;3.83;1.42;;;21.60;74.40;;;;;;5071101;28;20805;-62
2023/08/04 01:01:33;;;;;;;2.42;1.33;;;21.50;74.30;;;;;;5072075;28;20043;-62
2023/08/04 01:03:59;;;;;;;2.80;1.33;;;21.60;74.30;;;;;;5072240;28;20126;-62
2023/08/04 01:07:20;;;;;;;2.75;1.40;;;21.60;74.40;;;;;;5070982;28;20387;-63
2023/08/04 01:09:55;;;;;;;3.10;1.45;;;21.50;74.20;;;;;;5070516;28;20064;-62
2023/08/04 01:13:01;;;;;;;2.92;1.50;;;21.50;74.30;;;;;;5070710;28;20485;-62
2023/08/04 01:15:27;;;;;;;2.95;1.52;;;21.50;74.20;;;;;;5071717;28;20044;-62
2023/08/04 01:17:53;;;;;;;3.40;1.40;;;21.50;74.30;;;;;;5071626;28;20041;-62
2023/08/04 01:20:19;;;;;;;2.75;1.48;;;21.50;74.30;;;;;;5071283;28;20043;-62
2023/08/04 01:22:45;;;;;;;2.50;1.20;;;21.50;74.30;;;;;;5070417;28;20040;-62
2023/08/04 01:25:10;;;;;;;2.75;1.27;;;21.50;74.30;;;;;;5054201;28;20064;-62
2023/08/04 01:27:58;;;;;;;4.47;1.50;;;21.50;74.30;;;;;;5069710;28;20529;-61
2023/08/04 01:30:24;;;;;;;;;;;21.50;74.20;;;;;;5071013;28;20075;-63
2023/08/04 01:32:50;;;;;;;3.53;1.48;;;21.50;74.10;;;;;;5071693;28;20380;-62
2023/08/04 01:35:15;;;;;;;2.40;1.10;;;21.50;74.30;;;;;;5074349;28;20525;-64
2023/08/04 01:37:43;;;;;;;4.32;1.65;;;21.50;74.30;;;;;;5075373;28;20048;-62
2023/08/04 01:40:10;;;;;;;2.63;1.30;;;21.50;74.20;;;;;;5075357;28;20044;-62
2023/08/04 01:42:35;;;;;;;2.72;1.30;;;21.50;74.20;;;;;;5072943;28;20074;-62
2023/08/04 01:45:01;;;;;;;3.20;1.10;;;21.50;74.30;;;;;;5075157;28;20058;-62
2023/08/04 01:47:26;;;;;;;3.08;1.30;;;21.50;74.20;;;;;;5075335;28;20463;-62
2023/08/04 01:49:52;;;;;;;2.60;1.25;;;21.50;74.20;;;;;;5072996;28;20059;-62
2023/08/04 01:52:17;;;;;;;1.92;1.13;;;21.50;74.20;;;;;;5075037;28;20373;-62
2023/08/04 01:54:43;;;;;;;3.15;1.38;;;21.50;74.20;;;;;;5074948;28;20083;-62
2023/08/04 01:57:09;;;;;;;1.95;1.10;;;21.50;74.40;;;;;;5066118;28;20044;-62
2023/08/04 01:59:34;;;;;;;2.83;1.45;;;21.40;74.10;;;;;;5069383;28;20111;-62
2023/08/04 02:02:00;;;;;;;2.85;1.30;;;21.50;74.20;;;;;;5074626;28;20045;-62
2023/08/04 02:04:25;;;;;;;2.38;1.30;;;21.50;74.10;;;;;;5072356;28;20048;-62
2023/08/04 02:06:51;;;;;;;1.98;1.00;;;21.40;74.10;;;;;;5073819;28;20546;-62
2023/08/04 02:09:16;;;;;;;4.82;1.50;;;21.50;74.10;;;;;;5073818;28;20033;-62
2023/08/04 02:11:42;;;;;;;2.20;1.23;;;21.40;74.10;;;;;;5074643;28;20498;-62
2023/08/04 02:14:07;;;;;;;2.65;1.10;;;21.40;74.10;;;;;;5072851;28;20048;-61
2023/08/04 02:16:33;;;;;;;2.67;1.20;;;21.40;74.00;;;;;;5073629;28;20082;-62
2023/08/04 02:19:04;;;;;;;3.85;1.20;;;21.40;74.10;;;;;;5074559;28;20404;-62
2023/08/04 02:21:29;;;;;;;2.83;1.30;;;21.40;74.00;;;;;;5073310;28;20047;-62
2023/08/04 02:23:55;;;;;;;2.90;1.30;;;21.40;74.00;;;;;;5073565;28;20048;-62
2023/08/04 02:26:21;;;;;;;3.13;1.20;;;21.50;74.00;;;;;;5074620;28;20041;-62
2023/08/04 02:28:46;;;;;;;2.47;1.10;;;21.40;74.00;;;;;;5074009;28;20066;-62
2023/08/04 02:31:12;;;;;;;2.25;1.05;;;21.40;74.00;;;;;;5073315;28;20630;-62
2023/08/04 02:33:37;;;;;;;1.98;1.20;;;21.40;74.00;;;;;;5072904;28;20444;-62
2023/08/04 02:36:03;;;;;;;4.57;1.63;;;21.40;74.00;;;;;;5074239;28;20053;-62
2023/08/04 02:38:29;;;;;;;2.95;1.20;;;21.40;73.90;;;;;;5073573;28;20143;-62
2023/08/04 02:41:00;;;;;;;2.63;0.90;;;21.40;74.00;;;;;;5073827;28;20051;-61
2023/08/04 02:43:26;;;;;;;3.75;1.33;;;21.40;73.90;;;;;;5074171;28;20094;-62
2023/08/04 02:45:52;;;;;;;2.78;1.23;;;21.40;73.90;;;;;;5071748;28;20048;-62
2023/08/04 02:48:17;;;;;;;2.85;1.40;;;21.40;73.90;;;;;;5072769;28;20046;-62
2023/08/04 02:50:43;;;;;;;2.10;1.27;;;21.40;73.90;;;;;;5073738;28;20047;-62
2023/08/04 02:53:09;;;;;;;4.85;1.20;;;21.40;73.90;;;;;;5072236;28;20040;-62
2023/08/04 02:55:34;;;;;;;2.28;0.90;;;21.40;73.90;;;;;;5073173;28;20373;-62
2023/08/04 02:58:00;;;;;;;2.78;0.98;;;21.40;73.90;;;;;;5073924;28;20055;-62
2023/08/04 03:00:26;;;;;;;4.03;1.40;;;21.40;73.90;;;;;;5072721;28;20036;-62
2023/08/04 03:02:51;;;;;;;2.60;1.30;;;21.40;73.90;;;;;;5073562;28;20044;-62
2023/08/04 03:05:17;;;;;;;3.90;1.20;;;21.40;73.90;;;;;;5073668;28;20416;-63
2023/08/04 03:07:43;;;;;;;1.33;0.90;;;21.40;73.90;;;;;;5072617;28;20416;-62
2023/08/04 03:10:08;;;;;;;2.67;1.10;;;21.40;73.80;;;;;;5072135;28;20120;-62
2023/08/04 03:12:34;;;;;;;3.05;1.23;;;21.40;73.90;;;;;;5071168;28;20040;-62
2023/08/04 03:14:59;;;;;;;3.30;1.20;;;21.30;73.80;;;;;;5073295;28;20033;-62
2023/08/04 03:17:25;;;;;;;2.40;1.35;;;21.30;73.80;;;;;;5073429;28;20144;-62
2023/08/04 03:19:51;;;;;;;1.98;1.23;;;21.30;73.80;;;;;;5072236;28;20528;-62
2023/08/04 03:22:16;;;;;;;2.95;1.15;;;21.30;73.80;;;;;;5073616;28;20514;-63
2023/08/04 03:24:42;;;;;;;2.60;1.00;;;21.40;73.90;;;;;;5073158;28;20043;-62
2023/08/04 03:27:07;;;;;;;3.40;1.05;;;21.40;73.90;;;;;;5072415;28;20041;-62
2023/08/04 03:29:33;;;;;;;2.13;1.10;;;21.30;73.80;;;;;;5073402;28;20048;-62
2023/08/04 03:31:59;;;;;;;2.15;1.10;;;21.30;73.80;;;;;;5072917;28;20052;-62
2023/08/04 03:34:24;;;;;;;2.80;1.08;;;21.30;73.80;;;;;;5072405;28;20044;-62
2023/08/04 03:36:50;;;;;;;2.22;1.10;;;21.40;73.90;;;;;;5073006;28;20072;-62
2023/08/04 03:39:15;;;;;;;3.53;1.20;;;21.30;73.80;;;;;;5073228;28;20044;-62
2023/08/04 03:41:41;;;;;;;2.00;1.10;;;21.30;73.80;;;;;;5071800;28;20123;-62
2023/08/04 03:44:06;;;;;;;2.00;1.10;;;21.30;73.80;;;;;;5073096;28;20040;-62
2023/08/04 03:46:32;;;;;;;1.95;1.00;;;21.30;73.80;;;;;;5072793;28;20040;-62
2023/08/04 03:48:58;;;;;;;4.07;1.50;;;21.30;73.80;;;;;;5072073;28;20048;-62
2023/08/04 03:51:23;;;;;;;3.25;1.40;;;21.30;73.80;;;;;;5071500;28;20439;-62
2023/08/04 03:53:49;;;;;;;1.90;1.17;;;21.30;73.80;;;;;;5072692;28;20105;-62
2023/08/04 03:56:14;;;;;;;2.65;1.15;;;21.30;73.80;;;;;;5071454;28;20048;-62
2023/08/04 03:58:40;;;;;;;3.72;1.20;;;21.30;73.70;;;;;;5072684;28;20037;-62
2023/08/04 04:01:06;;;;;;;1.92;1.00;;;21.30;73.80;;;;;;5069370;28;20454;-62
2023/08/04 04:03:31;;;;;;;2.78;1.10;;;21.30;73.70;;;;;;5061424;28;20431;-62
2023/08/04 04:05:57;;;;;;;3.40;1.23;;;21.30;73.80;;;;;;5069919;28;20048;-62
2023/08/04 04:08:22;;;;;;;3.08;1.20;;;21.30;73.70;;;;;;5070966;28;20484;-62
2023/08/04 04:10:48;;;;;;;2.28;1.13;;;21.30;73.80;;;;;;5069940;28;20045;-62
2023/08/04 04:13:14;;;;;;;2.88;1.05;;;21.30;73.80;;;;;;5072403;28;20052;-62
2023/08/04 04:15:39;;;;;;;2.95;1.27;;;21.30;73.80;;;;;;5071997;28;20044;-62
2023/08/04 04:18:05;;;;;;;2.28;1.15;;;21.30;73.80;;;;;;5071495;28;20066;-62
2023/08/04 04:20:30;;;;;;;1.67;0.80;;;21.30;73.80;;;;;;5072672;28;20078;-62
2023/08/04 04:22:56;;;;;;;2.40;1.00;;;21.30;73.80;;;;;;5070166;28;20483;-62
2023/08/04 04:25:22;;;;;;;1.58;0.90;;;21.30;73.80;;;;;;5072163;28;20090;-62
2023/08/04 04:27:47;;;;;;;2.03;0.90;;;21.30;74.40;;;;;;5072411;28;20472;-62
2023/08/04 04:30:13;;;;;;;1.65;1.00;;;21.30;73.80;;;;;;5071635;28;20048;-63
2023/08/04 04:32:38;;;;;;;2.38;1.05;;;21.30;73.80;;;;;;5071712;28;20088;-62
2023/08/04 04:35:04;;;;;;;1.85;1.15;;;21.30;74.00;;;;;;5072466;28;20039;-62
2023/08/04 04:37:30;;;;;;;2.08;0.90;;;21.20;73.70;;;;;;5071536;28;20049;-62
2023/08/04 04:39:55;;;;;;;3.30;0.90;;;21.30;73.80;;;;;;5072040;28;20058;-61
2023/08/04 04:42:21;;;;;;;2.58;1.17;;;21.30;73.80;;;;;;5072390;28;20146;-62
2023/08/04 04:44:47;;;;;;;2.17;1.00;;;21.30;73.80;;;;;;5070128;28;20069;-62
2023/08/04 04:47:13;;;;;;;1.30;0.80;;;21.30;73.80;;;;;;5052012;28;20041;-62
2023/08/04 04:49:38;;;;;;;4.35;1.10;;;21.20;73.80;;;;;;5051966;28;20052;-62
2023/08/04 04:52:05;;;;;;;2.67;1.08;;;21.20;73.80;;;;;;5070289;28;20037;-61
2023/08/04 04:54:31;;;;;;;2.13;1.05;;;21.30;73.80;;;;;;5053989;28;20128;-62
2023/08/04 04:56:56;;;;;;;2.65;1.00;;;21.20;73.80;;;;;;5071777;28;20123;-62
2023/08/04 04:59:22;;;;;;;3.33;1.10;;;21.30;73.80;;;;;;5071613;28;20119;-62
2023/08/04 05:01:47;;;;;;;2.38;1.00;;;21.20;73.80;;;;;;5071334;28;20036;-61
2023/08/04 05:04:13;;;;;;;1.67;1.02;;;21.20;73.80;;;;;;5072319;28;20033;-62
2023/08/04 05:06:39;;;;;;;2.60;1.02;;;21.20;73.80;;;;;;5070670;28;20472;-62
2023/08/04 05:09:04;;;;;;;2.42;1.00;;;21.20;73.80;;;;;;5073714;28;20037;-62
2023/08/04 05:11:30;;;;;;;1.52;0.90;;;21.20;73.80;;;;;;5074109;28;20083;-62
2023/08/04 05:13:56;;;;;;;1.48;0.90;;;21.20;73.70;;;;;;5075043;28;20480;-63
2023/08/04 05:16:22;;;;;;;3.15;1.15;;;21.20;73.80;;;;;;5075318;28;20040;-62
2023/08/04 05:18:47;;;;;;;1.45;0.93;;;21.20;73.80;;;;;;5075652;28;20143;-63
2023/08/04 05:21:13;;;;;;;1.67;0.98;;;21.20;73.80;;;;;;5074851;28;20107;-62
2023/08/04 05:23:39;;;;;;;2.40;1.10;;;21.20;73.80;;;;;;5075075;28;20093;-63
2023/08/04 05:26:04;;;;;;;1.85;0.80;;;21.20;73.80;;;;;;5073659;28;20036;-63
2023/08/04 05:28:32;;;;;;;2.72;0.98;;;21.20;73.80;;;;;;5075599;28;20387;-63
2023/08/04 05:31:01;;;;;;;1.83;0.90;;;21.20;73.80;;;;;;5074836;28;20084;-63
2023/08/04 05:33:28;;;;;;;1.58;0.80;;;21.20;73.80;;;;;;5074788;28;20053;-63
2023/08/04 05:35:54;;;;;;;2.13;0.90;;;21.20;73.80;;;;;;5074837;28;20113;-64
2023/08/04 05:38:20;;;;;;;1.65;0.90;;;21.20;73.80;;;;;;5075241;28;20404;-63
2023/08/04 05:40:46;;;;;;;2.33;0.90;;;21.20;73.80;;;;;;5074392;28;20064;-63
2023/08/04 05:43:12;;;;;;;1.95;0.90;;;21.20;74.50;;;;;;5075373;28;20060;-63
2023/08/04 05:45:39;;;;;;;3.28;0.95;;;21.20;73.80;;;;;;5075014;28;20067;-63
2023/08/04 05:48:05;;;;;;;2.05;1.00;;;21.20;73.90;;;;;;5074504;28;20045;-63
2023/08/04 05:50:30;;;;;;;1.88;0.73;;;21.20;73.90;;;;;;5073933;28;20391;-63
2023/08/04 05:52:56;;;;;;;1.55;0.70;;;21.20;73.90;;;;;;5075064;28;20048;-63
2023/08/04 05:55:22;;;;;;;2.92;0.90;;;21.20;73.90;;;;;;5074178;28;20044;-63
2023/08/04 05:57:48;;;;;;;4.93;0.90;;;21.20;73.90;;;;;;5073801;28;20070;-62
2023/08/04 06:00:14;;;;;;;3.67;1.00;;;21.20;73.90;;;;;;5074022;28;20048;-63
2023/08/04 06:02:41;;;;;;;2.60;0.88;;;21.20;73.90;;;;;;5073798;28;20423;-63
2023/08/04 06:05:07;;;;;;;2.83;0.90;;;21.20;73.90;;;;;;5073635;28;20435;-62
2023/08/04 06:07:33;;;;;;;3.40;1.00;;;21.20;73.90;;;;;;5073173;28;20044;-62
2023/08/04 06:09:58;;;;;;;3.55;0.98;;;21.20;73.90;;;;;;5074310;28;20037;-61
2023/08/04 06:12:24;;;;;;;2.72;0.75;;;21.30;74.00;;;;;;5075011;28;20487;-63
2023/08/04 06:14:49;;;;;;;2.80;1.00;;;21.20;73.90;;;;;;5074591;28;20063;-63
2023/08/04 06:17:15;;;;;;;4.13;0.95;;;21.20;74.00;;;;;;5072379;28;20492;-62
2023/08/04 06:19:43;;;;;;;4.55;0.82;;;21.20;74.00;;;;;;5072682;28;20043;-63
2023/08/04 06:22:09;;;;;;;3.13;1.15;;;21.30;74.20;;;;;;5073102;28;20044;-63
2023/08/04 06:24:35;;;;;;;2.75;0.90;;;21.30;74.30;;;;;;5072553;28;20040;-63
2023/08/04 06:27:03;;;;;;;1.95;1.02;;;21.20;74.30;;;;;;5074587;28;20033;-64
2023/08/04 06:29:29;;;;;;;3.70;1.50;;;21.30;74.50;;;;;;5073705;28;20044;-64
2023/08/04 06:31:54;;;;;;;5.75;1.08;;;21.30;74.50;;;;;;5073396;28;20052;-63
2023/08/04 06:34:20;;;;;;;2.00;1.00;;;21.30;74.50;;;;;;5072123;28;20037;-62
2023/08/04 06:36:46;;;;;;;2.33;0.85;;;21.30;74.60;;;;;;5072477;28;20475;-62
2023/08/04 06:39:12;;;;;;;2.47;0.90;;;21.30;74.50;;;;;;5073989;28;20041;-61
2023/08/04 06:41:37;;;;;;;2.50;1.17;;;21.30;74.60;;;;;;5073611;28;20040;-63
2023/08/04 06:44:03;;;;;;;3.15;0.80;;;21.30;74.60;;;;;;5073648;28;20044;-61
2023/08/04 06:46:29;;;;;;;3.67;1.30;;;21.30;74.70;;;;;;5074219;28;20373;-63
2023/08/04 06:48:54;;;;;;;2.70;1.00;;;21.30;74.80;;;;;;5073791;28;20093;-63
2023/08/04 06:51:20;;;;;;;4.55;1.25;;;21.40;74.90;;;;;;5073066;28;20036;-62
2023/08/04 06:53:45;;;;;;;3.30;0.90;;;21.30;74.90;;;;;;5073531;28;20047;-62
2023/08/04 06:56:11;;;;;;;2.15;0.90;;;21.40;74.90;;;;;;5073818;28;20028;-63
2023/08/04 06:58:36;;;;;;;1.42;0.90;;;21.40;74.90;;;;;;5072965;28;20521;-63
2023/08/04 07:01:02;;;;;;;3.10;1.00;;;21.40;75.00;;;;;;5073893;28;20047;-62
2023/08/04 07:03:28;;;;;;;2.30;0.95;;;21.40;75.00;;;;;;5072421;28;20125;-61
2023/08/04 07:05:53;;;;;;;2.45;1.13;;;21.40;74.90;;;;;;5072243;28;20056;-60
2023/08/04 07:08:19;;;;;;;4.00;0.98;;;21.40;75.00;;;;;;5073835;28;20043;-60
2023/08/04 07:10:45;;;;;;;2.85;1.00;;;21.40;74.90;;;;;;5073442;28;20140;-62
2023/08/04 07:13:10;;;;;;;2.80;1.10;;;21.40;74.90;;;;;;5072967;28;20399;-62
2023/08/04 07:15:36;;;;;;;2.42;1.10;;;21.40;74.90;;;;;;5072657;28;20115;-64
2023/08/04 07:18:02;;;;;;;5.07;1.00;;;21.40;74.80;;;;;;5073397;28;20086;-63
2023/08/04 07:20:28;;;;;;;4.22;1.00;;;21.40;74.90;;;;;;5071922;28;20667;-63
2023/08/04 07:22:54;;;;;;;2.40;1.27;;;21.40;74.90;;;;;;5071748;28;20048;-62
2023/08/04 07:25:20;;;;;;;5.30;1.10;;;21.40;74.90;;;;;;5072754;28;20037;-64
2023/08/04 07:27:45;;;;;;;2.03;1.00;;;21.40;74.90;;;;;;5072219;28;20460;-64
2023/08/04 07:30:13;;;;;;;3.20;1.27;;;21.40;74.90;;;;;;5072840;28;20090;-64
2023/08/04 07:32:39;;;;;;;3.03;1.23;;;21.40;74.90;;;;;;5070547;28;20053;-63
2023/08/04 07:35:04;;;;;;;2.60;1.05;;;21.40;74.90;;;;;;5069242;28;20059;-63
2023/08/04 07:37:30;;;;;;;2.65;1.30;;;21.50;75.00;;;;;;5072939;28;20385;-63
2023/08/04 07:39:55;;;;;;;3.30;1.30;;;21.50;75.00;;;;;;5070503;28;20388;-63
2023/08/04 07:42:21;;;;;;;3.60;1.10;;;21.50;75.00;;;;;;5072914;28;20044;-63
2023/08/04 07:44:47;;;;;;;4.85;1.10;;;21.50;75.00;;;;;;5072514;28;20116;-64
2023/08/04 07:47:12;;;;;;;4.78;1.10;;;21.50;75.00;;;;;;5071940;28;20039;-64
2023/08/04 07:49:38;;;;;;;4.35;1.35;;;21.50;74.90;;;;;;5072253;28;20399;-63
2023/08/04 07:52:04;;;;;;;2.40;0.90;;;21.50;74.90;;;;;;5072918;28;20037;-64
2023/08/04 07:54:29;;;;;;;2.75;0.90;;;21.50;74.90;;;;;;5071979;28;20044;-64
2023/08/04 07:56:55;;;;;;;1.80;0.82;;;21.50;74.90;;;;;;5069950;28;20043;-64
2023/08/04 07:59:21;;;;;;;4.72;1.00;;;21.50;74.90;;;;;;5072732;28;20037;-64
2023/08/04 08:01:46;;;;;;;4.85;1.10;;;21.50;74.90;;;;;;5070110;28;20403;-65
2023/08/04 08:04:12;;;;;;;2.40;0.80;;;21.50;74.90;;;;;;5074511;28;20032;-64
2023/08/04 08:06:38;;;;;;;2.15;1.10;;;21.50;74.90;;;;;;5072597;28;20173;-64
2023/08/04 08:09:04;;;;;;;3.83;0.73;;;21.50;74.90;;;;;;5072230;28;20048;-63
2023/08/04 08:11:30;;;;;;;2.75;0.98;;;21.50;74.90;;;;;;5071498;28;20450;-64
2023/08/04 08:13:55;;;;;;;2.63;1.00;;;21.60;74.90;;;;;;5071238;28;20051;-64
2023/08/04 08:16:21;;;;;;;4.88;1.10;;;21.50;74.80;;;;;;5070464;28;20174;-64
2023/08/04 08:18:46;;;;;;;3.35;0.80;;;21.50;74.80;;;;;;5072590;28;20040;-64
2023/08/04 08:21:12;;;;;;;3.28;1.13;;;21.50;74.70;;;;;;5072729;28;20400;-64
2023/08/04 08:23:38;;;;;;;2.28;0.98;;;21.60;74.80;;;;;;5070387;28;20047;-64
2023/08/04 08:26:04;;;;;;;3.30;0.90;;;21.50;74.70;;;;;;5072743;28;20041;-64
2023/08/04 08:28:29;;;;;;;2.10;1.00;;;21.60;74.70;;;;;;5072893;28;20051;-64
2023/08/04 08:30:55;;;;;;;2.78;1.00;;;21.50;74.60;;;;;;5071394;28;20053;-64
2023/08/04 08:33:21;;;;;;;2.33;0.93;;;21.50;74.60;;;;;;5072556;28;20036;-64
2023/08/04 08:35:46;;;;;;;4.47;0.95;;;21.60;74.70;;;;;;5072146;28;20463;-63
2023/08/04 08:38:12;;;;;;;5.10;1.27;;;21.60;74.60;;;;;;5071945;28;20040;-64
2023/08/04 08:40:37;;;;;;;4.13;1.10;;;21.60;74.70;;;;;;5070659;28;20614;-65
2023/08/04 08:43:03;;;;;;;3.95;0.88;;;21.60;74.70;;;;;;5072016;28;20047;-65
2023/08/04 08:45:29;;;;;;;3.72;0.98;;;21.60;74.80;;;;;;5075574;28;20044;-64
2023/08/04 08:47:55;;;;;;;5.47;1.08;;;21.60;74.80;;;;;;5075957;28;20129;-65
2023/08/04 08:50:25;;;;;;;2.35;0.90;;;21.60;74.80;;;;;;5076002;28;20139;-64
2023/08/04 08:52:56;;;;;;;5.68;1.35;;;21.60;75.00;;;;;;5076298;28;20048;-64
2023/08/04 08:55:22;;;;;;;2.92;0.80;;;21.70;74.80;;;;;;5058895;28;20099;-64
2023/08/04 08:57:47;;;;;;;2.78;1.00;;;21.80;74.70;;;;;;5075293;28;20456;-64
2023/08/04 09:00:13;;;;;;;1.77;0.80;;;21.70;74.60;;;;;;5075409;28;20032;-64
2023/08/04 09:02:39;;;;;;;3.33;0.90;;;21.70;74.60;;;;;;5072484;28;20074;-64
2023/08/04 09:05:05;;;;;;;2.80;1.15;;;21.80;74.70;;;;;;5065265;28;20041;-64
2023/08/04 09:07:31;;;;;;;3.22;0.88;;;21.80;74.60;;;;;;5054926;28;20041;-64
2023/08/04 09:09:56;;;;;;;2.63;0.90;;;21.80;74.50;;;;;;5056251;28;20048;-65
2023/08/04 09:12:24;;;;;;;3.72;0.80;;;21.80;74.40;;;;;;5055606;28;20470;-64
2023/08/04 09:14:50;;;;;;;;;;;21.80;74.40;;;;;;5071365;28;20472;-65
2023/08/04 09:17:37;;;;;;;3.25;1.00;;;21.80;74.40;;;;;;5054129;28;20287;-64
2023/08/04 09:20:04;;;;;;;3.78;1.30;;;21.80;74.40;;;;;;5054916;28;20045;-65
2023/08/04 09:22:31;;;;;;;7.43;1.33;;;21.90;74.40;;;;;;5055939;28;20118;-67
2023/08/04 09:25:01;;;;;;;6.18;1.33;;;21.90;74.30;;;;;;5067304;28;20029;-66
2023/08/04 09:27:28;;;;;;;4.85;1.25;;;21.90;74.20;;;;;;5070438;28;20495;-65
2023/08/04 09:30:00;;;;;;;2.35;1.00;;;21.90;74.10;;;;;;5073178;28;20048;-65
2023/08/04 09:32:26;;;;;;;4.07;1.27;;;21.90;74.10;;;;;;5073142;28;20052;-62
2023/08/04 09:34:59;;;;;;;3.35;1.08;;;21.90;74.10;;;;;;5073088;28;20044;-63
2023/08/04 09:37:25;;;;;;;5.80;1.15;;;21.90;74.10;;;;;;5073911;28;20049;-62
2023/08/04 09:39:50;;;;;;;6.75;1.08;;;21.90;74.10;;;;;;5054560;28;20472;-69
2023/08/04 09:42:18;;;;;;;6.82;1.23;;;21.90;74.20;;;;;;5057341;28;20527;-62
2023/08/04 09:44:43;;;;;;;4.93;0.98;;;21.90;74.20;;;;;;5055811;28;20044;-63
2023/08/04 09:47:09;;;;;;;4.28;1.10;;;21.90;74.20;;;;;;5039915;28;20063;-64
2023/08/04 09:49:35;;;;;;;5.57;1.42;;;21.80;74.20;;;;;;5056660;28;20036;-72
2023/08/04 09:52:01;;;;;;;6.32;0.93;;;21.90;74.10;;;;;;5074172;28;20060;-63
2023/08/04 09:54:27;;;;;;;5.28;1.48;;;21.90;74.10;;;;;;5056229;28;20048;-65
2023/08/04 09:56:55;;;;;;;8.23;1.52;;;22.00;74.30;;;;;;5075032;28;20052;-63
2023/08/04 09:59:20;;;;;;;8.30;1.30;;;22.00;74.40;;;;;;5075393;28;20492;-65
2023/08/04 10:01:46;;;;;;;4.47;1.30;;;22.00;74.40;;;;;;5056096;28;20124;-62
2023/08/04 10:04:12;;;;;;;5.88;1.45;;;22.00;74.50;;;;;;5072917;28;20526;-65
2023/08/04 10:06:38;;;;;;;4.55;1.20;;;22.00;74.50;;;;;;5056583;28;20044;-64
2023/08/04 10:09:04;;;;;;;7.80;1.38;;;22.00;74.70;;;;;;5069753;28;20047;-65
2023/08/04 10:11:30;;;;;;;5.68;1.38;;;22.00;74.80;;;;;;5089247;28;20522;-65
2023/08/04 10:13:56;;;;;;;4.35;1.42;;;22.00;74.90;;;;;;5067587;28;20040;-65
2023/08/04 10:16:31;;;;;;;6.15;1.65;;;22.00;74.90;;;;;;5037415;28;20049;-65
2023/08/04 10:19:02;;;;;;;5.22;1.73;;;22.00;75.00;;;;;;5063666;28;20105;-65
2023/08/04 10:21:38;;;;;;;5.93;1.35;;;22.00;75.00;;;;;;5072875;28;20040;-65
2023/08/04 10:24:06;;;;;;;5.15;1.05;;;22.00;75.00;;;;;;5074158;28;20064;-65
2023/08/04 10:26:42;;;;;;;5.45;1.27;;;22.00;75.00;;;;;;5074797;28;20051;-64
2023/08/04 10:29:08;;;;;;;7.65;1.30;;;22.00;75.00;;;;;;5073956;28;20479;-64
2023/08/04 10:31:51;;;;;;;5.35;1.23;;;22.00;75.10;;;;;;5073939;28;20056;-65
2023/08/04 10:34:29;;;;;;;2.78;1.20;;;22.00;75.10;;;;;;5074244;28;20079;-63
2023/08/04 10:37:05;;;;;;;6.78;1.50;;;22.00;75.10;;;;;;5073246;28;20059;-64
2023/08/04 10:39:36;;;;;;;3.58;1.33;;;22.00;75.10;;;;;;5074530;28;20043;-64
2023/08/04 10:42:26;;;;;;;6.20;1.33;;;22.00;75.10;;;;;;5074503;28;20040;-64
2023/08/04 10:44:53;;;;;;;6.35;1.50;;;22.10;75.10;;;;;;5067992;28;20091;-64
2023/08/04 10:47:40;;;;;;;5.95;1.23;;;22.00;75.10;;;;;;5074112;28;20496;-64
2023/08/04 10:50:06;;;;;;;13.10;1.40;;;22.00;75.10;;;;;;5071911;28;20047;-64
2023/08/04 10:52:32;;;;;;;2.97;1.13;;;22.00;75.20;;;;;;5070330;28;20445;-63
2023/08/04 10:54:58;;;;;;;3.33;1.30;;;22.00;75.20;;;;;;5073877;28;20056;-64
2023/08/04 10:57:26;;;;;;;3.72;1.30;;;22.00;75.10;;;;;;5072448;28;20044;-63
2023/08/04 10:59:52;;;;;;;2.65;1.23;;;22.00;75.00;;;;;;5073444;28;20488;-63
2023/08/04 11:02:18;;;;;;;4.65;1.60;;;22.00;75.00;;;;;;5073592;28;20033;-63
2023/08/04 11:04:45;;;;;;;3.72;1.20;;;22.10;74.90;;;;;;5072865;28;20040;-63
2023/08/04 11:07:11;;;;;;;7.38;1.30;;;22.10;74.90;;;;;;5072840;28;20120;-63
2023/08/04 11:09:37;;;;;;;2.63;1.10;;;22.10;74.80;;;;;;5073257;28;20036;-64
2023/08/04 11:12:05;;;;;;;2.03;1.00;;;22.10;74.80;;;;;;5071430;28;20048;-64
2023/08/04 11:14:31;;;;;;;4.85;1.30;;;22.10;74.80;;;;;;5063524;28;20051;-67
2023/08/04 11:17:00;;;;;;;2.55;1.08;;;22.20;74.80;;;;;;5067926;28;20119;-66
2023/08/04 11:19:27;;;;;;;5.35;1.42;;;22.20;74.80;;;;;;5063682;28;20060;-65
2023/08/04 11:21:53;;;;;;;7.88;1.63;;;22.20;74.80;;;;;;5065577;28;20064;-66
2023/08/04 11:24:24;;;;;;;2.38;1.10;;;22.20;74.80;;;;;;5071723;28;20154;-66
2023/08/04 11:26:51;;;;;;;4.70;1.30;;;22.30;74.90;;;;;;5070881;28;20051;-66
2023/08/04 11:29:20;;;;;;;3.95;1.30;;;22.30;74.90;;;;;;5073199;28;20041;-65
2023/08/04 11:31:49;;;;;;;3.72;1.20;;;22.30;74.90;;;;;;5054827;28;20091;-66
2023/08/04 11:34:15;;;;;;;4.93;1.30;;;22.30;75.00;;;;;;5072716;28;20044;-66
2023/08/04 11:36:41;;;;;;;4.50;1.52;;;22.30;75.00;;;;;;5073034;28;20036;-65
2023/08/04 11:39:06;;;;;;;5.82;1.35;;;22.30;75.10;;;;;;5070942;28;20036;-65
2023/08/04 11:41:32;;;;;;;3.30;1.23;;;22.30;75.00;;;;;;5073296;28;20051;-64
2023/08/04 11:44:00;;;;;;;4.57;1.50;;;22.30;75.00;;;;;;5072608;28;20457;-65
2023/08/04 11:46:27;;;;;;;5.88;1.17;;;22.30;75.00;;;;;;5072536;28;20120;-65
2023/08/04 11:48:52;;;;;;;2.88;0.90;;;22.30;75.00;;;;;;5072744;28;20037;-64
2023/08/04 11:51:18;;;;;;;3.25;1.40;;;22.30;75.00;;;;;;5071900;28;20044;-66
2023/08/04 11:53:44;;;;;;;3.78;1.13;;;22.30;75.00;;;;;;5053647;28;20499;-66
2023/08/04 11:56:10;;;;;;;2.95;1.20;;;22.30;75.10;;;;;;5073005;28;20110;-65
2023/08/04 11:58:36;;;;;;;4.15;1.10;;;22.30;75.00;;;;;;5072668;28;20476;-65
2023/08/04 12:01:05;;;;;;;3.40;1.10;;;22.30;75.10;;;;;;5063287;28;20110;-66
2023/08/04 12:03:45;;;;;;;6.03;1.45;;;22.30;75.10;;;;;;5098464;28;20071;-66
2023/08/04 12:06:15;;;;;;;5.22;1.00;;;22.30;75.10;;;;;;5062818;28;20036;-66
2023/08/04 12:08:53;;;;;;;4.90;1.42;;;22.30;75.10;;;;;;5068196;28;20050;-66
2023/08/04 12:11:19;;;;;;;4.57;1.25;;;22.30;75.70;;;;;;5052038;28;20053;-66
2023/08/04 12:13:45;;;;;;;4.07;1.23;;;22.30;75.10;;;;;;5064636;28;20456;-63
2023/08/04 12:16:11;;;;;;;4.68;1.40;;;22.30;75.20;;;;;;5065060;28;20159;-65
2023/08/04 12:18:39;;;;;;;3.08;1.23;;;22.30;75.20;;;;;;5062024;28;20447;-63
2023/08/04 12:21:04;;;;;;;3.17;1.20;;;22.30;75.20;;;;;;5063990;28;20082;-65
2023/08/04 12:23:30;;;;;;;2.95;1.30;;;22.30;75.20;;;;;;5070426;28;20468;-66
2023/08/04 12:25:55;;;;;;;4.32;1.05;;;22.30;75.40;;;;;;5070464;28;20416;-65
2023/08/04 12:28:21;;;;;;;3.67;1.45;;;22.30;75.40;;;;;;5071897;28;20520;-63
2023/08/04 12:30:47;;;;;;;3.45;1.27;;;22.30;75.40;;;;;;5071960;28;20051;-66
2023/08/04 12:33:13;;;;;;;3.65;1.17;;;22.30;75.40;;;;;;5072144;28;20040;-65
2023/08/04 12:35:39;;;;;;;7.53;1.63;;;22.30;75.40;;;;;;5070854;28;20056;-65
2023/08/04 12:38:04;;;;;;;4.70;1.35;;;22.20;75.30;;;;;;5071566;28;20072;-65
2023/08/04 12:40:34;;;;;;;4.75;1.48;;;22.20;75.40;;;;;;5071465;28;20070;-67
2023/08/04 12:43:00;;;;;;;5.55;1.38;;;22.20;75.60;;;;;;5070981;28;20040;-66
2023/08/04 12:45:26;;;;;;;5.10;1.40;;;22.30;75.70;;;;;;5071859;28;20075;-66